Frierson, Louisiana
Current Conditions -  °F | °C
As of 1:56 PM on Friday 24 Oct 2014 (Local Time) from KSHV Reporting Station
Few Clouds Few Clouds  
Wind Chill: 74°   Ceiling: Unl
Heat Index: 74°   Visibility: 10mi
Dew Point: 51°   Wind: 6mph
Humidity: 45%   Direction: 300°WNW
Pressure: 30.13"   Gusts: NA
Location:  32.25°N, 93.69°W
Report Text: KSHV 241856Z 30005KT 10SM FEW300 23/11 A3013 RMK AO2 SLP199 T02330106
Loading
Personal Weather Stations






























Interactive Weather Map
Tropical Storm Tracking
New forecast layout! Learn more

10-Day Weather Forecast

Advertisements
Track Severe Weather on mobile